x

Ne Burgeo Bank (44255) Wave Buoy

7:00am - Wed 27th Jul 2016 All times are ADT. -3 hours from GMT.

  • Sig Wave height 3.0ft
  • Peak Period 7s
  • Wind
    13mph, 16mph gusts
  • Sea Temp 59°f
  • Sea Pressure 1012mb
  • Ne Burgeo Bank
  • Ne Burgeo Bank

More Historic Weather Station data

Upgrade to MSW Pro to gain access to the past 30 days of data for over 8000 Wavebouys and Weather Stations around the globe.

Join Pro

Comparision Forecast

View Surf forecast
   
Wed 07/27 7:00am 3ft 7s 13 16 mph 1012mb 59f
6:00am 2.5ft 7s 13 18 mph 1011.6mb 59f
5:00am 3ft 7s 13 16 mph 1011.9mb 59f
4:00am 3ft 7s 13 18 mph 1012mb 59f
3:00am 3ft 7s 11 13 mph 1012.3mb 59f
2:00am 2.5ft 7s 11 13 mph 1012.3mb 59f
1:00am 2.5ft 7s 11 13 mph 1012.3mb 59f
12:00am 2.5ft 7s 11
mph
1012.9mb 59f
Tue 07/26 11:00pm 2.5ft 7s 9 13 mph 1013mb 59f
10:00pm 2.5ft 8s 11 13 mph 1013.3mb 59f
9:00pm 2.5ft 7s 9 11 mph 1013.5mb 59f
8:00pm 2.5ft 7s 7 9 mph 1013.4mb 59f
7:00pm 3ft 7s 9
mph
1013.2mb 59f
6:00pm 3ft 8s 11 13 mph 1013.4mb 60f
5:00pm 3ft 7s 9 11 mph 1013mb 59f
4:00pm 3ft 7s 11 13 mph 1013.5mb 59f
3:00pm 3ft 7s 11 13 mph 1013.2mb 60f
2:00pm 3ft 8s 11 13 mph 1012.9mb 60f
1:00pm 3ft 8s 9 11 mph 1013.4mb 60f
12:00pm 2.5ft 8s 7 9 mph 1013.8mb 60f
11:00am 3ft 8s 7 9 mph 1014mb 59f
10:00am 3.5ft 7s 7 9 mph 1013.8mb 59f
9:00am 2.5ft 8s 9 11 mph 1013.8mb 59f
8:00am 3ft 8s 9 11 mph 1013.8mb 59f
7:00am 3ft 8s 11 13 mph 1013.4mb 59f
6:00am 3ft 8s 2
mph
1013.2mb 59f
5:00am 3ft 8s 2 4 mph 1013mb 59f
4:00am 3ft 8s 2
mph
1012.7mb 60f
3:00am 3.5ft 8s 7 9 mph 1012.6mb 60f
2:00am 3.5ft 8s 4 7 mph 1012.4mb 60f
1:00am 3.5ft 8s 4 7 mph 1012.4mb 60f
12:00am 3.5ft 8s 4 7 mph 1012.6mb 60f
Mon 07/25 11:00pm 3.5ft 7s 2 4 mph 1012.7mb 60f
10:00pm 3.5ft 8s 2 4 mph 1013mb 60f
9:00pm 3.5ft 8s 7 9 mph 1012.7mb 60f
8:00pm 3.5ft 8s 4 7 mph 1012.4mb 61f
7:00pm 3.5ft 8s 4
mph
1012mb 60f
6:00pm 4ft 8s 4
mph
1012.2mb 61f
5:00pm 3.5ft 8s 4 7 mph 1012.2mb 61f
4:00pm 3.5ft 8s 7 9 mph 1012.4mb 61f
3:00pm 4.5ft 9s 7 9 mph 1012.5mb 61f
2:00pm 4.5ft 8s 4 7 mph 1012.4mb 61f
1:00pm 4.5ft 8s 2 4 mph 1012.3mb 61f
12:00pm 4.5ft 9s 4 7 mph 1012.9mb 60f
11:00am 4.5ft 9s 2 4 mph 1013mb 59f
10:00am 4.5ft 9s  -  2 mph 1012.6mb 58f
9:00am 4.5ft 9s  -  2 mph 1012.8mb 58f
8:00am 5ft 8s  -  mph 1012.7mb 58f
7:00am 4.5ft 8s 2 4 mph 1012.5mb 58f
6:00am 5ft 8s 2 4 mph 1012.3mb 59f
5:00am 5ft 9s 2
mph
1011.8mb 59f
4:00am 5ft 9s 2 4 mph 1011.6mb 59f
3:00am 5ft 10s 4 7 mph 1011.4mb 59f
2:00am 4.5ft 8s 4
mph
1011.6mb 58f
1:00am 4.5ft 8s 4
mph
1011.7mb 58f
12:00am 4.5ft 8s 7 9 mph 1012mb 59f
Sun 07/24 11:00pm 4.5ft 8s 7 9 mph 1011.8mb 59f
10:00pm 4.5ft 8s 7 9 mph 1012mb 59f
9:00pm 3.5ft 8s 9
mph
1011.5mb 59f
8:00pm 3.5ft 7s 11
mph
1011mb 59f
7:00pm 3.5ft 8s 4 7 mph 1010.9mb 59f
6:00pm 3.5ft 7s 2
mph
1010.5mb 59f
5:00pm 3.5ft 7s 7 9 mph 1010.1mb 60f
4:00pm 3.5ft 6s 9 11 mph 1009.7mb 60f
3:00pm 3.5ft 7s 4 7 mph 1009.7mb 60f
2:00pm 4ft 7s 4
mph
1009.7mb 59f
1:00pm 4ft 8s 2
mph
1009.6mb 59f
12:00pm 4ft 7s 4
mph
1009.7mb 58f
11:00am 4ft 7s 7
mph
1009.4mb 58f
10:00am 4.5ft 7s 9
mph
1009.2mb 58f
9:00am 4.5ft 7s 9
mph
1008.8mb 58f
8:00am 5ft 7s 2 4 mph 1008.5mb 58f
7:00am 5ft 7s 4
mph
1008.1mb 58f
6:00am 5ft 7s 7 9 mph 1007.8mb 58f
5:00am 5ft 7s 7 9 mph 1007.4mb 58f
4:00am 5.5ft 8s 9 11 mph 1007.1mb 58f
3:00am 5.5ft 7s 9 11 mph 1007mb 58f
2:00am 6ft 7s 9 13 mph 1007mb 58f
1:00am 6ft 8s 11 13 mph 1007mb 58f
12:00am 6ft 8s 13 16 mph 1007.2mb 58f
Sat 07/23 11:00pm 7ft 8s 13 16 mph 1007.4mb 58f
10:00pm 6ft 8s 16 18 mph 1007.6mb 58f
9:00pm 5.5ft 8s 13 16 mph 1007.1mb 58f
8:00pm 6ft 7s 13
mph
1007.1mb 58f
7:00pm 6.5ft 8s 13 16 mph 1006.9mb 58f
6:00pm 6.5ft 8s 16 18 mph 1006.9mb 57f
5:00pm 7ft 8s 16 20 mph 1006.4mb 57f
4:00pm 7ft 8s 18 20 mph 1006.3mb 57f
3:00pm 7.5ft 8s 16 18 mph 1006.1mb 57f
2:00pm 8ft 8s 22 27 mph 1006.3mb 57f
1:00pm 8ft 7s 20 27 mph 1006.6mb 57f
12:00pm 8ft 8s 18 20 mph 1006.5mb 57f